sensor_id;sensor_type;location;lat;lon;timestamp;P1;durP1;ratioP1;P2;durP2;ratioP2
12976;SDS011;6553;48.412;9.514;2023-09-18T00:02:21;2.78;;;2.55;;
12976;SDS011;6553;48.412;9.514;2023-09-18T00:04:46;2.40;;;2.20;;
12976;SDS011;6553;48.412;9.514;2023-09-18T00:07:13;2.45;;;2.25;;
12976;SDS011;6553;48.412;9.514;2023-09-18T00:09:39;2.25;;;2.15;;
12976;SDS011;6553;48.412;9.514;2023-09-18T00:12:05;2.28;;;2.17;;
12976;SDS011;6553;48.412;9.514;2023-09-18T00:14:31;2.35;;;1.98;;
12976;SDS011;6553;48.412;9.514;2023-09-18T00:16:57;2.78;;;2.45;;
12976;SDS011;6553;48.412;9.514;2023-09-18T00:19:23;2.35;;;2.22;;
12976;SDS011;6553;48.412;9.514;2023-09-18T00:21:50;2.20;;;2.10;;
12976;SDS011;6553;48.412;9.514;2023-09-18T00:24:17;2.40;;;2.20;;
12976;SDS011;6553;48.412;9.514;2023-09-18T00:26:43;2.15;;;2.05;;
12976;SDS011;6553;48.412;9.514;2023-09-18T00:29:11;2.30;;;2.10;;
12976;SDS011;6553;48.412;9.514;2023-09-18T00:31:36;2.42;;;2.22;;
12976;SDS011;6553;48.412;9.514;2023-09-18T00:34:02;2.70;;;2.50;;
12976;SDS011;6553;48.412;9.514;2023-09-18T00:36:28;2.70;;;2.50;;
12976;SDS011;6553;48.412;9.514;2023-09-18T00:38:53;3.08;;;2.55;;
12976;SDS011;6553;48.412;9.514;2023-09-18T00:41:19;2.30;;;2.20;;
12976;SDS011;6553;48.412;9.514;2023-09-18T00:43:45;2.55;;;2.17;;
12976;SDS011;6553;48.412;9.514;2023-09-18T00:46:10;2.53;;;2.33;;
12976;SDS011;6553;48.412;9.514;2023-09-18T00:48:37;2.47;;;2.20;;
12976;SDS011;6553;48.412;9.514;2023-09-18T00:51:04;2.35;;;2.20;;
12976;SDS011;6553;48.412;9.514;2023-09-18T00:53:31;2.70;;;2.35;;
12976;SDS011;6553;48.412;9.514;2023-09-18T00:55:57;2.50;;;2.30;;
12976;SDS011;6553;48.412;9.514;2023-09-18T00:58:26;2.47;;;2.28;;
12976;SDS011;6553;48.412;9.514;2023-09-18T01:00:52;2.30;;;2.10;;
12976;SDS011;6553;48.412;9.514;2023-09-18T01:03:19;2.47;;;2.28;;
12976;SDS011;6553;48.412;9.514;2023-09-18T01:05:46;1.90;;;1.80;;
12976;SDS011;6553;48.412;9.514;2023-09-18T01:08:12;2.95;;;2.33;;
12976;SDS011;6553;48.412;9.514;2023-09-18T01:10:42;2.50;;;2.30;;
12976;SDS011;6553;48.412;9.514;2023-09-18T01:13:42;2.42;;;2.22;;
12976;SDS011;6553;48.412;9.514;2023-09-18T01:16:27;3.03;;;2.42;;
12976;SDS011;6553;48.412;9.514;2023-09-18T01:19:09;2.17;;;2.00;;
12976;SDS011;6553;48.412;9.514;2023-09-18T01:21:35;3.58;;;2.15;;
12976;SDS011;6553;48.412;9.514;2023-09-18T01:24:00;2.20;;;2.10;;
12976;SDS011;6553;48.412;9.514;2023-09-18T01:26:26;2.30;;;2.10;;
12976;SDS011;6553;48.412;9.514;2023-09-18T01:28:52;2.35;;;2.15;;
12976;SDS011;6553;48.412;9.514;2023-09-18T01:31:17;2.63;;;2.42;;
12976;SDS011;6553;48.412;9.514;2023-09-18T01:33:43;2.38;;;2.17;;
12976;SDS011;6553;48.412;9.514;2023-09-18T01:36:12;2.00;;;1.90;;
12976;SDS011;6553;48.412;9.514;2023-09-18T01:38:40;2.63;;;2.42;;
12976;SDS011;6553;48.412;9.514;2023-09-18T01:41:07;2.15;;;2.05;;
12976;SDS011;6553;48.412;9.514;2023-09-18T01:43:34;2.20;;;2.05;;
12976;SDS011;6553;48.412;9.514;2023-09-18T01:46:00;2.28;;;2.10;;
12976;SDS011;6553;48.412;9.514;2023-09-18T01:48:27;2.17;;;2.08;;
12976;SDS011;6553;48.412;9.514;2023-09-18T01:50:53;2.30;;;2.20;;
12976;SDS011;6553;48.412;9.514;2023-09-18T01:53:19;2.13;;;1.90;;
12976;SDS011;6553;48.412;9.514;2023-09-18T01:55:45;2.40;;;2.20;;
12976;SDS011;6553;48.412;9.514;2023-09-18T01:58:13;2.40;;;2.20;;
12976;SDS011;6553;48.412;9.514;2023-09-18T02:00:39;2.13;;;2.00;;
12976;SDS011;6553;48.412;9.514;2023-09-18T02:03:05;2.35;;;2.13;;
12976;SDS011;6553;48.412;9.514;2023-09-18T02:05:31;2.95;;;2.03;;
12976;SDS011;6553;48.412;9.514;2023-09-18T02:07:57;2.08;;;1.98;;
12976;SDS011;6553;48.412;9.514;2023-09-18T02:10:23;2.33;;;2.13;;
12976;SDS011;6553;48.412;9.514;2023-09-18T02:12:49;2.45;;;2.25;;
12976;SDS011;6553;48.412;9.514;2023-09-18T02:15:15;2.10;;;2.00;;
12976;SDS011;6553;48.412;9.514;2023-09-18T02:17:41;2.53;;;2.30;;
12976;SDS011;6553;48.412;9.514;2023-09-18T02:20:08;2.47;;;2.28;;
12976;SDS011;6553;48.412;9.514;2023-09-18T02:22:36;3.38;;;2.38;;
12976;SDS011;6553;48.412;9.514;2023-09-18T02:25:05;2.25;;;2.10;;
12976;SDS011;6553;48.412;9.514;2023-09-18T02:27:32;2.30;;;2.10;;
12976;SDS011;6553;48.412;9.514;2023-09-18T02:29:58;2.50;;;2.30;;
12976;SDS011;6553;48.412;9.514;2023-09-18T02:32:23;2.42;;;2.22;;
12976;SDS011;6553;48.412;9.514;2023-09-18T02:34:49;2.08;;;1.88;;
12976;SDS011;6553;48.412;9.514;2023-09-18T02:37:15;3.05;;;2.10;;
12976;SDS011;6553;48.412;9.514;2023-09-18T02:39:41;2.30;;;2.20;;
12976;SDS011;6553;48.412;9.514;2023-09-18T02:42:06;2.08;;;1.88;;
12976;SDS011;6553;48.412;9.514;2023-09-18T02:44:32;2.45;;;1.90;;
12976;SDS011;6553;48.412;9.514;2023-09-18T02:46:58;2.40;;;2.20;;
12976;SDS011;6553;48.412;9.514;2023-09-18T02:49:24;2.30;;;2.03;;
12976;SDS011;6553;48.412;9.514;2023-09-18T02:51:49;1.85;;;1.75;;
12976;SDS011;6553;48.412;9.514;2023-09-18T02:54:16;2.78;;;2.17;;
12976;SDS011;6553;48.412;9.514;2023-09-18T02:56:41;2.45;;;2.25;;
12976;SDS011;6553;48.412;9.514;2023-09-18T02:59:07;2.55;;;2.30;;
12976;SDS011;6553;48.412;9.514;2023-09-18T03:01:34;2.30;;;2.10;;
12976;SDS011;6553;48.412;9.514;2023-09-18T03:03:59;2.20;;;2.00;;
12976;SDS011;6553;48.412;9.514;2023-09-18T03:06:26;2.40;;;2.10;;
12976;SDS011;6553;48.412;9.514;2023-09-18T03:08:52;2.58;;;2.35;;
12976;SDS011;6553;48.412;9.514;2023-09-18T03:11:18;2.40;;;2.17;;
12976;SDS011;6553;48.412;9.514;2023-09-18T03:13:45;2.30;;;2.10;;
12976;SDS011;6553;48.412;9.514;2023-09-18T03:16:13;2.95;;;2.00;;
12976;SDS011;6553;48.412;9.514;2023-09-18T03:18:40;2.67;;;2.10;;
12976;SDS011;6553;48.412;9.514;2023-09-18T03:21:06;2.25;;;2.05;;
12976;SDS011;6553;48.412;9.514;2023-09-18T03:23:31;2.20;;;2.00;;
12976;SDS011;6553;48.412;9.514;2023-09-18T03:25:57;2.38;;;2.15;;
12976;SDS011;6553;48.412;9.514;2023-09-18T03:28:25;2.88;;;2.20;;
12976;SDS011;6553;48.412;9.514;2023-09-18T03:30:51;2.25;;;2.05;;
12976;SDS011;6553;48.412;9.514;2023-09-18T03:33:20;2.55;;;2.35;;
12976;SDS011;6553;48.412;9.514;2023-09-18T03:35:47;2.00;;;1.80;;
12976;SDS011;6553;48.412;9.514;2023-09-18T03:38:17;2.17;;;2.08;;
12976;SDS011;6553;48.412;9.514;2023-09-18T03:40:43;2.38;;;2.17;;
12976;SDS011;6553;48.412;9.514;2023-09-18T03:43:09;2.00;;;1.80;;
12976;SDS011;6553;48.412;9.514;2023-09-18T03:45:37;2.33;;;2.15;;
12976;SDS011;6553;48.412;9.514;2023-09-18T03:48:07;2.53;;;2.00;;
12976;SDS011;6553;48.412;9.514;2023-09-18T03:50:33;2.47;;;2.28;;
12976;SDS011;6553;48.412;9.514;2023-09-18T03:52:59;2.50;;;2.00;;
12976;SDS011;6553;48.412;9.514;2023-09-18T03:55:25;2.58;;;2.38;;
12976;SDS011;6553;48.412;9.514;2023-09-18T03:57:52;2.20;;;2.00;;
12976;SDS011;6553;48.412;9.514;2023-09-18T04:00:17;2.63;;;1.98;;
12976;SDS011;6553;48.412;9.514;2023-09-18T04:02:43;2.30;;;2.10;;
12976;SDS011;6553;48.412;9.514;2023-09-18T04:05:09;2.10;;;1.90;;
12976;SDS011;6553;48.412;9.514;2023-09-18T04:07:35;2.03;;;1.83;;
12976;SDS011;6553;48.412;9.514;2023-09-18T04:10:01;2.10;;;1.90;;
12976;SDS011;6553;48.412;9.514;2023-09-18T04:12:28;2.22;;;2.05;;
12976;SDS011;6553;48.412;9.514;2023-09-18T04:14:54;2.20;;;2.00;;
12976;SDS011;6553;48.412;9.514;2023-09-18T04:17:21;1.80;;;1.70;;
12976;SDS011;6553;48.412;9.514;2023-09-18T04:19:47;2.90;;;2.28;;
12976;SDS011;6553;48.412;9.514;2023-09-18T04:22:13;2.33;;;2.00;;
12976;SDS011;6553;48.412;9.514;2023-09-18T04:24:39;1.90;;;1.80;;
12976;SDS011;6553;48.412;9.514;2023-09-18T04:27:06;2.28;;;2.00;;
12976;SDS011;6553;48.412;9.514;2023-09-18T04:29:32;2.80;;;2.10;;
12976;SDS011;6553;48.412;9.514;2023-09-18T04:31:57;3.28;;;2.30;;
12976;SDS011;6553;48.412;9.514;2023-09-18T04:34:24;2.38;;;2.22;;
12976;SDS011;6553;48.412;9.514;2023-09-18T04:36:50;2.35;;;2.17;;
12976;SDS011;6553;48.412;9.514;2023-09-18T04:39:16;2.03;;;1.88;;
12976;SDS011;6553;48.412;9.514;2023-09-18T04:41:41;2.38;;;2.08;;
12976;SDS011;6553;48.412;9.514;2023-09-18T04:44:08;2.95;;;2.30;;
12976;SDS011;6553;48.412;9.514;2023-09-18T04:46:35;2.10;;;1.95;;
12976;SDS011;6553;48.412;9.514;2023-09-18T04:49:02;2.00;;;1.90;;
12976;SDS011;6553;48.412;9.514;2023-09-18T04:51:30;2.28;;;1.92;;
12976;SDS011;6553;48.412;9.514;2023-09-18T04:53:58;2.03;;;1.90;;
12976;SDS011;6553;48.412;9.514;2023-09-18T04:56:24;1.83;;;1.73;;
12976;SDS011;6553;48.412;9.514;2023-09-18T04:58:51;2.30;;;1.88;;
12976;SDS011;6553;48.412;9.514;2023-09-18T05:01:17;3.22;;;1.80;;
12976;SDS011;6553;48.412;9.514;2023-09-18T05:03:44;2.38;;;2.08;;
12976;SDS011;6553;48.412;9.514;2023-09-18T05:06:10;1.83;;;1.73;;
12976;SDS011;6553;48.412;9.514;2023-09-18T05:08:36;2.47;;;2.13;;
12976;SDS011;6553;48.412;9.514;2023-09-18T05:11:01;3.53;;;2.10;;
12976;SDS011;6553;48.412;9.514;2023-09-18T05:13:27;2.10;;;1.80;;
12976;SDS011;6553;48.412;9.514;2023-09-18T05:15:53;2.53;;;2.33;;
12976;SDS011;6553;48.412;9.514;2023-09-18T05:18:19;2.60;;;2.20;;
12976;SDS011;6553;48.412;9.514;2023-09-18T05:20:44;3.20;;;2.40;;
12976;SDS011;6553;48.412;9.514;2023-09-18T05:23:10;2.60;;;2.40;;
12976;SDS011;6553;48.412;9.514;2023-09-18T05:25:36;2.60;;;2.10;;
12976;SDS011;6553;48.412;9.514;2023-09-18T05:28:03;2.72;;;2.00;;
12976;SDS011;6553;48.412;9.514;2023-09-18T05:30:32;2.33;;;2.10;;
12976;SDS011;6553;48.412;9.514;2023-09-18T05:33:01;2.45;;;2.20;;
12976;SDS011;6553;48.412;9.514;2023-09-18T05:35:34;2.17;;;1.75;;
12976;SDS011;6553;48.412;9.514;2023-09-18T05:38:10;2.45;;;1.85;;
12976;SDS011;6553;48.412;9.514;2023-09-18T05:40:43;2.78;;;2.13;;
12976;SDS011;6553;48.412;9.514;2023-09-18T05:43:10;2.28;;;2.08;;
12976;SDS011;6553;48.412;9.514;2023-09-18T05:45:37;4.97;;;2.00;;
12976;SDS011;6553;48.412;9.514;2023-09-18T05:48:03;4.28;;;2.35;;
12976;SDS011;6553;48.412;9.514;2023-09-18T05:50:33;2.15;;;1.95;;
12976;SDS011;6553;48.412;9.514;2023-09-18T05:53:03;2.47;;;1.90;;
12976;SDS011;6553;48.412;9.514;2023-09-18T05:55:29;3.70;;;2.10;;
12976;SDS011;6553;48.412;9.514;2023-09-18T05:57:56;3.70;;;2.20;;
12976;SDS011;6553;48.412;9.514;2023-09-18T06:00:23;3.90;;;1.95;;
12976;SDS011;6553;48.412;9.514;2023-09-18T06:02:49;1.98;;;1.80;;
12976;SDS011;6553;48.412;9.514;2023-09-18T06:05:16;1.90;;;1.70;;
12976;SDS011;6553;48.412;9.514;2023-09-18T06:07:46;2.10;;;1.90;;
12976;SDS011;6553;48.412;9.514;2023-09-18T06:10:14;4.43;;;2.08;;
12976;SDS011;6553;48.412;9.514;2023-09-18T06:12:41;2.20;;;2.00;;
12976;SDS011;6553;48.412;9.514;2023-09-18T06:15:07;2.65;;;1.92;;
12976;SDS011;6553;48.412;9.514;2023-09-18T06:17:38;2.13;;;1.70;;
12976;SDS011;6553;48.412;9.514;2023-09-18T06:20:10;3.72;;;1.95;;
12976;SDS011;6553;48.412;9.514;2023-09-18T06:22:40;2.28;;;1.95;;
12976;SDS011;6553;48.412;9.514;2023-09-18T06:25:06;3.03;;;1.90;;
12976;SDS011;6553;48.412;9.514;2023-09-18T06:27:38;2.55;;;2.03;;
12976;SDS011;6553;48.412;9.514;2023-09-18T06:30:07;1.95;;;1.75;;
12976;SDS011;6553;48.412;9.514;2023-09-18T06:32:33;3.92;;;1.83;;
12976;SDS011;6553;48.412;9.514;2023-09-18T06:35:00;2.58;;;2.08;;
12976;SDS011;6553;48.412;9.514;2023-09-18T06:37:26;2.22;;;2.03;;
12976;SDS011;6553;48.412;9.514;2023-09-18T06:39:51;2.95;;;1.80;;
12976;SDS011;6553;48.412;9.514;2023-09-18T06:42:17;3.13;;;2.10;;
12976;SDS011;6553;48.412;9.514;2023-09-18T06:44:43;4.97;;;2.33;;
12976;SDS011;6553;48.412;9.514;2023-09-18T06:47:09;2.63;;;1.80;;
12976;SDS011;6553;48.412;9.514;2023-09-18T06:49:35;3.40;;;2.10;;
12976;SDS011;6553;48.412;9.514;2023-09-18T06:52:01;2.25;;;1.70;;
12976;SDS011;6553;48.412;9.514;2023-09-18T06:54:27;2.25;;;1.90;;
12976;SDS011;6553;48.412;9.514;2023-09-18T06:56:53;2.10;;;1.80;;
12976;SDS011;6553;48.412;9.514;2023-09-18T06:59:19;2.03;;;1.75;;
12976;SDS011;6553;48.412;9.514;2023-09-18T07:01:44;3.80;;;2.10;;
12976;SDS011;6553;48.412;9.514;2023-09-18T07:04:10;2.72;;;1.73;;
12976;SDS011;6553;48.412;9.514;2023-09-18T07:06:37;2.47;;;1.90;;
12976;SDS011;6553;48.412;9.514;2023-09-18T07:09:03;2.38;;;1.80;;
12976;SDS011;6553;48.412;9.514;2023-09-18T07:11:31;3.55;;;1.63;;
12976;SDS011;6553;48.412;9.514;2023-09-18T07:13:58;2.92;;;1.67;;
12976;SDS011;6553;48.412;9.514;2023-09-18T07:16:25;3.70;;;2.05;;
12976;SDS011;6553;48.412;9.514;2023-09-18T07:18:50;4.75;;;2.20;;
12976;SDS011;6553;48.412;9.514;2023-09-18T07:21:16;2.33;;;1.60;;
12976;SDS011;6553;48.412;9.514;2023-09-18T07:23:42;1.65;;;1.50;;
12976;SDS011;6553;48.412;9.514;2023-09-18T07:26:08;2.10;;;1.75;;
12976;SDS011;6553;48.412;9.514;2023-09-18T07:28:34;3.00;;;1.70;;
12976;SDS011;6553;48.412;9.514;2023-09-18T07:31:06;1.83;;;1.58;;
12976;SDS011;6553;48.412;9.514;2023-09-18T07:33:34;2.58;;;1.67;;
12976;SDS011;6553;48.412;9.514;2023-09-18T07:36:00;3.72;;;2.00;;
12976;SDS011;6553;48.412;9.514;2023-09-18T07:38:26;1.80;;;1.70;;
12976;SDS011;6553;48.412;9.514;2023-09-18T07:40:52;2.97;;;2.20;;
12976;SDS011;6553;48.412;9.514;2023-09-18T07:43:17;1.98;;;1.77;;
12976;SDS011;6553;48.412;9.514;2023-09-18T07:45:43;3.25;;;1.95;;
12976;SDS011;6553;48.412;9.514;2023-09-18T07:48:09;2.47;;;1.70;;
12976;SDS011;6553;48.412;9.514;2023-09-18T07:50:35;2.13;;;1.73;;
12976;SDS011;6553;48.412;9.514;2023-09-18T07:53:01;2.67;;;1.55;;
12976;SDS011;6553;48.412;9.514;2023-09-18T07:55:27;2.08;;;1.60;;
12976;SDS011;6553;48.412;9.514;2023-09-18T07:57:55;2.22;;;1.60;;
12976;SDS011;6553;48.412;9.514;2023-09-18T08:00:21;3.25;;;1.70;;
12976;SDS011;6553;48.412;9.514;2023-09-18T08:02:48;2.38;;;1.60;;
12976;SDS011;6553;48.412;9.514;2023-09-18T08:05:15;3.47;;;1.90;;
12976;SDS011;6553;48.412;9.514;2023-09-18T08:07:42;2.05;;;1.90;;
12976;SDS011;6553;48.412;9.514;2023-09-18T08:10:08;2.38;;;1.95;;
12976;SDS011;6553;48.412;9.514;2023-09-18T08:12:35;2.25;;;1.75;;
12976;SDS011;6553;48.412;9.514;2023-09-18T08:15:01;1.92;;;1.50;;
12976;SDS011;6553;48.412;9.514;2023-09-18T08:17:28;2.28;;;1.70;;
12976;SDS011;6553;48.412;9.514;2023-09-18T08:19:54;1.95;;;1.52;;
12976;SDS011;6553;48.412;9.514;2023-09-18T08:22:20;2.83;;;1.40;;
12976;SDS011;6553;48.412;9.514;2023-09-18T08:24:47;2.88;;;1.52;;
12976;SDS011;6553;48.412;9.514;2023-09-18T08:27:16;3.00;;;1.67;;
12976;SDS011;6553;48.412;9.514;2023-09-18T08:29:42;2.47;;;1.70;;
12976;SDS011;6553;48.412;9.514;2023-09-18T08:32:09;3.60;;;1.98;;
12976;SDS011;6553;48.412;9.514;2023-09-18T08:34:35;3.35;;;1.70;;
12976;SDS011;6553;48.412;9.514;2023-09-18T08:37:01;1.98;;;1.42;;
12976;SDS011;6553;48.412;9.514;2023-09-18T08:39:28;3.08;;;1.77;;
12976;SDS011;6553;48.412;9.514;2023-09-18T08:41:59;1.95;;;1.45;;
12976;SDS011;6553;48.412;9.514;2023-09-18T08:44:29;2.72;;;1.65;;
12976;SDS011;6553;48.412;9.514;2023-09-18T08:46:55;2.40;;;1.60;;
12976;SDS011;6553;48.412;9.514;2023-09-18T08:49:22;2.53;;;1.52;;
12976;SDS011;6553;48.412;9.514;2023-09-18T08:51:53;3.55;;;1.95;;
12976;SDS011;6553;48.412;9.514;2023-09-18T08:54:23;2.85;;;1.45;;
12976;SDS011;6553;48.412;9.514;2023-09-18T08:56:50;3.78;;;1.60;;
12976;SDS011;6553;48.412;9.514;2023-09-18T08:59:17;2.95;;;1.38;;
12976;SDS011;6553;48.412;9.514;2023-09-18T09:01:52;1.65;;;1.55;;
12976;SDS011;6553;48.412;9.514;2023-09-18T09:04:18;1.67;;;1.30;;
12976;SDS011;6553;48.412;9.514;2023-09-18T09:06:44;3.28;;;1.40;;
12976;SDS011;6553;48.412;9.514;2023-09-18T09:09:10;2.28;;;1.58;;
12976;SDS011;6553;48.412;9.514;2023-09-18T09:11:38;3.47;;;1.45;;
12976;SDS011;6553;48.412;9.514;2023-09-18T09:14:11;2.42;;;1.45;;
12976;SDS011;6553;48.412;9.514;2023-09-18T09:16:50;1.67;;;1.58;;
12976;SDS011;6553;48.412;9.514;2023-09-18T09:19:17;2.47;;;1.35;;
12976;SDS011;6553;48.412;9.514;2023-09-18T09:21:44;1.30;;;1.20;;
12976;SDS011;6553;48.412;9.514;2023-09-18T09:24:11;1.63;;;1.30;;
12976;SDS011;6553;48.412;9.514;2023-09-18T09:26:40;2.15;;;1.30;;
12976;SDS011;6553;48.412;9.514;2023-09-18T09:29:14;1.50;;;1.40;;
12976;SDS011;6553;48.412;9.514;2023-09-18T09:31:43;2.00;;;1.40;;
12976;SDS011;6553;48.412;9.514;2023-09-18T09:34:10;1.83;;;1.50;;
12976;SDS011;6553;48.412;9.514;2023-09-18T09:36:50;1.42;;;1.33;;
12976;SDS011;6553;48.412;9.514;2023-09-18T09:39:20;1.52;;;1.42;;
12976;SDS011;6553;48.412;9.514;2023-09-18T09:41:51;2.30;;;1.42;;
12976;SDS011;6553;48.412;9.514;2023-09-18T09:44:17;1.38;;;1.23;;
12976;SDS011;6553;48.412;9.514;2023-09-18T09:46:47;2.28;;;1.40;;
12976;SDS011;6553;48.412;9.514;2023-09-18T09:49:15;2.08;;;1.30;;
12976;SDS011;6553;48.412;9.514;2023-09-18T09:51:41;1.95;;;1.30;;
12976;SDS011;6553;48.412;9.514;2023-09-18T09:54:07;1.38;;;1.27;;
12976;SDS011;6553;48.412;9.514;2023-09-18T09:56:40;2.00;;;1.40;;
12976;SDS011;6553;48.412;9.514;2023-09-18T09:59:10;1.42;;;1.33;;
12976;SDS011;6553;48.412;9.514;2023-09-18T10:01:38;2.03;;;1.20;;
12976;SDS011;6553;48.412;9.514;2023-09-18T10:04:07;1.27;;;1.17;;
12976;SDS011;6553;48.412;9.514;2023-09-18T10:06:38;1.10;;;1.00;;
12976;SDS011;6553;48.412;9.514;2023-09-18T10:09:09;2.35;;;1.35;;
12976;SDS011;6553;48.412;9.514;2023-09-18T10:11:40;1.98;;;1.45;;
12976;SDS011;6553;48.412;9.514;2023-09-18T10:14:12;1.55;;;1.30;;
12976;SDS011;6553;48.412;9.514;2023-09-18T10:16:45;2.40;;;1.60;;
12976;SDS011;6553;48.412;9.514;2023-09-18T10:19:27;2.15;;;1.25;;
12976;SDS011;6553;48.412;9.514;2023-09-18T10:24:47;1.02;;;1.02;;
12976;SDS011;6553;48.412;9.514;2023-09-18T10:27:25;1.40;;;1.30;;
12976;SDS011;6553;48.412;9.514;2023-09-18T10:29:53;0.95;;;0.95;;
12976;SDS011;6553;48.412;9.514;2023-09-18T10:32:19;1.15;;;1.05;;
12976;SDS011;6553;48.412;9.514;2023-09-18T10:34:47;2.15;;;1.17;;
12976;SDS011;6553;48.412;9.514;2023-09-18T10:37:13;1.52;;;1.10;;
12976;SDS011;6553;48.412;9.514;2023-09-18T10:39:41;2.13;;;1.20;;
12976;SDS011;6553;48.412;9.514;2023-09-18T10:42:09;1.20;;;1.10;;
12976;SDS011;6553;48.412;9.514;2023-09-18T10:44:37;1.75;;;1.10;;
12976;SDS011;6553;48.412;9.514;2023-09-18T10:47:05;1.25;;;1.15;;
12976;SDS011;6553;48.412;9.514;2023-09-18T10:49:35;2.22;;;1.17;;
12976;SDS011;6553;48.412;9.514;2023-09-18T10:52:01;1.35;;;1.20;;
12976;SDS011;6553;48.412;9.514;2023-09-18T10:54:29;1.98;;;1.10;;
12976;SDS011;6553;48.412;9.514;2023-09-18T10:56:57;1.00;;;1.00;;
12976;SDS011;6553;48.412;9.514;2023-09-18T10:59:23;1.15;;;1.05;;
12976;SDS011;6553;48.412;9.514;2023-09-18T11:01:49;1.13;;;1.00;;
12976;SDS011;6553;48.412;9.514;2023-09-18T11:04:19;1.52;;;1.10;;
12976;SDS011;6553;48.412;9.514;2023-09-18T11:17:34;1.55;;;1.20;;
12976;SDS011;6553;48.412;9.514;2023-09-18T11:20:01;1.60;;;1.08;;
12976;SDS011;6553;48.412;9.514;2023-09-18T11:22:37;2.47;;;1.00;;
12976;SDS011;6553;48.412;9.514;2023-09-18T11:28:14;1.15;;;1.05;;
12976;SDS011;6553;48.412;9.514;2023-09-18T11:30:49;1.33;;;1.23;;
12976;SDS011;6553;48.412;9.514;2023-09-18T11:36:03;1.83;;;1.02;;
12976;SDS011;6553;48.412;9.514;2023-09-18T11:38:53;1.17;;;1.00;;
12976;SDS011;6553;48.412;9.514;2023-09-18T11:41:22;1.98;;;1.30;;
12976;SDS011;6553;48.412;9.514;2023-09-18T11:43:51;1.40;;;0.93;;
12976;SDS011;6553;48.412;9.514;2023-09-18T11:46:50;1.38;;;1.08;;
12976;SDS011;6553;48.412;9.514;2023-09-18T11:49:20;1.63;;;1.20;;
12976;SDS011;6553;48.412;9.514;2023-09-18T11:51:48;2.13;;;1.13;;
12976;SDS011;6553;48.412;9.514;2023-09-18T11:54:15;1.08;;;0.98;;
12976;SDS011;6553;48.412;9.514;2023-09-18T11:56:43;3.15;;;1.00;;
12976;SDS011;6553;48.412;9.514;2023-09-18T11:59:09;3.17;;;1.30;;
12976;SDS011;6553;48.412;9.514;2023-09-18T12:01:37;1.90;;;1.10;;
12976;SDS011;6553;48.412;9.514;2023-09-18T12:04:05;0.90;;;0.88;;
12976;SDS011;6553;48.412;9.514;2023-09-18T12:06:38;1.13;;;0.90;;
12976;SDS011;6553;48.412;9.514;2023-09-18T12:09:05;1.33;;;1.10;;
12976;SDS011;6553;48.412;9.514;2023-09-18T12:11:32;1.70;;;1.00;;
12976;SDS011;6553;48.412;9.514;2023-09-18T12:14:00;1.70;;;1.20;;
12976;SDS011;6553;48.412;9.514;2023-09-18T12:16:30;1.35;;;1.10;;
12976;SDS011;6553;48.412;9.514;2023-09-18T12:19:04;1.48;;;0.80;;
12976;SDS011;6553;48.412;9.514;2023-09-18T12:21:31;1.00;;;0.90;;
12976;SDS011;6553;48.412;9.514;2023-09-18T12:23:58;1.85;;;1.20;;
12976;SDS011;6553;48.412;9.514;2023-09-18T12:26:24;3.20;;;1.35;;
12976;SDS011;6553;48.412;9.514;2023-09-18T12:28:51;1.27;;;1.00;;
12976;SDS011;6553;48.412;9.514;2023-09-18T12:31:17;0.90;;;0.90;;
12976;SDS011;6553;48.412;9.514;2023-09-18T12:33:43;1.10;;;1.00;;
12976;SDS011;6553;48.412;9.514;2023-09-18T12:36:09;1.20;;;1.10;;
12976;SDS011;6553;48.412;9.514;2023-09-18T12:38:36;1.65;;;1.00;;
12976;SDS011;6553;48.412;9.514;2023-09-18T12:41:03;1.92;;;1.20;;
12976;SDS011;6553;48.412;9.514;2023-09-18T12:43:37;1.98;;;0.98;;
12976;SDS011;6553;48.412;9.514;2023-09-18T12:46:09;1.58;;;1.15;;
12976;SDS011;6553;48.412;9.514;2023-09-18T12:48:41;0.95;;;0.95;;
12976;SDS011;6553;48.412;9.514;2023-09-18T12:51:11;1.35;;;1.05;;
12976;SDS011;6553;48.412;9.514;2023-09-18T12:53:39;0.80;;;0.80;;
12976;SDS011;6553;48.412;9.514;2023-09-18T12:56:06;2.25;;;1.00;;
12976;SDS011;6553;48.412;9.514;2023-09-18T12:58:37;1.38;;;1.00;;
12976;SDS011;6553;48.412;9.514;2023-09-18T13:01:07;1.10;;;1.00;;
12976;SDS011;6553;48.412;9.514;2023-09-18T13:03:46;1.10;;;1.00;;
12976;SDS011;6553;48.412;9.514;2023-09-18T13:06:16;1.20;;;1.00;;
12976;SDS011;6553;48.412;9.514;2023-09-18T13:08:44;1.17;;;0.90;;
12976;SDS011;6553;48.412;9.514;2023-09-18T13:11:11;1.17;;;0.90;;
12976;SDS011;6553;48.412;9.514;2023-09-18T13:13:39;0.90;;;0.90;;
12976;SDS011;6553;48.412;9.514;2023-09-18T13:16:06;1.27;;;0.93;;
12976;SDS011;6553;48.412;9.514;2023-09-18T13:18:36;0.85;;;0.85;;
12976;SDS011;6553;48.412;9.514;2023-09-18T13:21:10;0.93;;;0.90;;
12976;SDS011;6553;48.412;9.514;2023-09-18T13:23:36;1.17;;;0.90;;
12976;SDS011;6553;48.412;9.514;2023-09-18T13:26:04;1.23;;;1.05;;
12976;SDS011;6553;48.412;9.514;2023-09-18T13:28:33;0.80;;;0.77;;
12976;SDS011;6553;48.412;9.514;2023-09-18T13:31:01;2.33;;;0.95;;
12976;SDS011;6553;48.412;9.514;2023-09-18T13:33:31;0.95;;;0.95;;
12976;SDS011;6553;48.412;9.514;2023-09-18T13:36:02;1.35;;;0.90;;
12976;SDS011;6553;48.412;9.514;2023-09-18T13:38:28;1.05;;;1.02;;
12976;SDS011;6553;48.412;9.514;2023-09-18T13:40:54;1.17;;;1.02;;
12976;SDS011;6553;48.412;9.514;2023-09-18T13:43:20;2.22;;;1.40;;
12976;SDS011;6553;48.412;9.514;2023-09-18T13:45:47;0.85;;;0.80;;
12976;SDS011;6553;48.412;9.514;2023-09-18T13:48:17;0.98;;;0.85;;
12976;SDS011;6553;48.412;9.514;2023-09-18T13:50:43;0.80;;;0.80;;
12976;SDS011;6553;48.412;9.514;2023-09-18T13:53:11;1.10;;;0.80;;
12976;SDS011;6553;48.412;9.514;2023-09-18T13:55:37;1.13;;;0.85;;
12976;SDS011;6553;48.412;9.514;2023-09-18T13:58:03;1.13;;;1.00;;
12976;SDS011;6553;48.412;9.514;2023-09-18T14:00:29;1.10;;;0.88;;
12976;SDS011;6553;48.412;9.514;2023-09-18T14:02:54;0.90;;;0.90;;
12976;SDS011;6553;48.412;9.514;2023-09-18T14:05:20;1.25;;;1.08;;
12976;SDS011;6553;48.412;9.514;2023-09-18T14:07:46;0.77;;;0.75;;
12976;SDS011;6553;48.412;9.514;2023-09-18T14:10:13;1.17;;;1.08;;
12976;SDS011;6553;48.412;9.514;2023-09-18T14:12:41;2.70;;;1.05;;
12976;SDS011;6553;48.412;9.514;2023-09-18T14:15:08;9.27;;;1.95;;
12976;SDS011;6553;48.412;9.514;2023-09-18T14:17:35;4.13;;;1.48;;
12976;SDS011;6553;48.412;9.514;2023-09-18T14:20:01;3.22;;;1.60;;
12976;SDS011;6553;48.412;9.514;2023-09-18T14:22:31;3.25;;;1.38;;
12976;SDS011;6553;48.412;9.514;2023-09-18T14:25:00;4.43;;;1.40;;
12976;SDS011;6553;48.412;9.514;2023-09-18T14:27:30;4.28;;;1.40;;
12976;SDS011;6553;48.412;9.514;2023-09-18T14:29:56;4.47;;;1.30;;
12976;SDS011;6553;48.412;9.514;2023-09-18T14:32:22;3.03;;;1.23;;
12976;SDS011;6553;48.412;9.514;2023-09-18T14:34:48;1.55;;;1.02;;
12976;SDS011;6553;48.412;9.514;2023-09-18T14:37:13;3.17;;;1.20;;
12976;SDS011;6553;48.412;9.514;2023-09-18T14:39:39;1.40;;;1.15;;
12976;SDS011;6553;48.412;9.514;2023-09-18T14:42:05;2.17;;;1.15;;
12976;SDS011;6553;48.412;9.514;2023-09-18T14:44:31;2.35;;;1.10;;
12976;SDS011;6553;48.412;9.514;2023-09-18T14:46:57;2.72;;;1.15;;
12976;SDS011;6553;48.412;9.514;2023-09-18T14:49:24;2.33;;;1.08;;
12976;SDS011;6553;48.412;9.514;2023-09-18T14:51:52;2.92;;;1.10;;
12976;SDS011;6553;48.412;9.514;2023-09-18T14:54:19;2.40;;;1.15;;
12976;SDS011;6553;48.412;9.514;2023-09-18T14:56:45;1.98;;;1.00;;
12976;SDS011;6553;48.412;9.514;2023-09-18T14:59:12;2.13;;;1.20;;
12976;SDS011;6553;48.412;9.514;2023-09-18T15:01:38;1.75;;;1.10;;
12976;SDS011;6553;48.412;9.514;2023-09-18T15:04:04;1.65;;;1.00;;
12976;SDS011;6553;48.412;9.514;2023-09-18T15:06:29;2.20;;;1.33;;
12976;SDS011;6553;48.412;9.514;2023-09-18T15:08:56;2.22;;;1.27;;
12976;SDS011;6553;48.412;9.514;2023-09-18T15:11:22;1.50;;;1.38;;
12976;SDS011;6553;48.412;9.514;2023-09-18T15:13:48;2.70;;;1.00;;
12976;SDS011;6553;48.412;9.514;2023-09-18T15:16:14;1.08;;;0.90;;
12976;SDS011;6553;48.412;9.514;2023-09-18T15:18:40;1.02;;;0.90;;
12976;SDS011;6553;48.412;9.514;2023-09-18T15:21:05;2.05;;;1.20;;
12976;SDS011;6553;48.412;9.514;2023-09-18T15:23:31;2.00;;;1.55;;